Flight Track Log - Related Links

Times and Time Zones

All times are in EDT time to prevent confusion due to time zone crossing. See the N749SS flight status page for this flight to view local times or setup timezone preferences in your user account.

Time Position Orientation Groundspeed Altitude Reporting Facility
EDT Latitude Longitude Course Direction KTS MPH feet Rate Location/Type
Mon 06:16:00 PM 42.3181 -82.3198 113° Southeast  Level Estimated
Mon 06:16:00 PM 42.3769 -82.6519 114° Southeast 426 490 13,500  Level Cleveland Center
Mon 06:17:00 PM 42.2803 -82.2026 114° Southeast  Level Estimated
Mon 06:17:00 PM 42.2872 -82.5367 136° Southeast 438 504 15,800  Level Cleveland Center
Mon 06:18:00 PM 42.2371 -82.0697 114° Southeast  Level Estimated
Mon 06:18:00 PM 42.2061 -82.4025 129° Southeast 444 511 18,200  Level Cleveland Center
Mon 06:19:00 PM 42.1939 -81.9370 114° Southeast  Level Estimated
Mon 06:19:00 PM 42.1375 -82.2575 123° Southeast 455 524 20,500  Level Cleveland Center
Mon 06:20:00 PM 42.1504 -81.8044 114° Southeast  Level Estimated
Mon 06:20:00 PM 42.0725 -82.1272 124° Southeast 461 531 22,400  Level Cleveland Center
Mon 06:21:00 PM 42.1068 -81.6720 114° Southeast  Level Estimated
Mon 06:21:00 PM 41.9972 -81.9772 124° Southeast 480 552 23,000  Level Cleveland Center
Mon 06:22:00 PM 41.9117 -81.8136 125° Southeast 489 563 23,900 1,250 Climbing Cleveland Center
Mon 06:23:00 PM 41.8361 -81.6617 124° Southeast 494 568 25,500 1,300 Climbing Cleveland Center
Mon 06:24:00 PM 41.7561 -81.5072 125° Southeast 502 578 26,500 1,050 Climbing Cleveland Center
Mon 06:25:00 PM 41.6761 -81.3503 124° Southeast 502 578 27,600 1,050 Climbing Cleveland Center
Mon 06:26:00 PM 41.5936 -81.1911 125° Southeast 508 585 28,600 1,400 Climbing Cleveland Center
Mon 06:27:00 PM 41.5131 -81.0378 125° Southeast 508 585 30,400 1,700 Climbing Cleveland Center
Mon 06:28:00 PM 41.4406 -80.9044 126° Southeast 501 577 32,000 1,300 Climbing Cleveland Center
Mon 06:29:00 PM 41.3617 -80.7519 125° Southeast 495 570 33,000 500 Climbing Cleveland Center
Mon 06:30:00 PM 41.2803 -80.5969 125° Southeast 504 580 33,000  Level Cleveland Center
Mon 06:31:00 PM 41.2011 -80.4453 125° Southeast 509 586 33,000  Level Cleveland Center
Mon 06:32:00 PM 41.1217 -80.2964 125° Southeast 504 580 33,000  Level Cleveland Center
Mon 06:33:00 PM 41.0397 -80.1428 125° Southeast 504 580 33,000  Level Cleveland Center
Mon 06:34:00 PM 40.9558 -79.9892 126° Southeast 504 580 33,000  Level Cleveland Center
Mon 06:35:00 PM 40.8736 -79.8361 125° Southeast 504 580 33,000  Level Cleveland Center
Mon 06:36:00 PM 40.7911 -79.6892 127° Southeast 504 580 33,000  Level Cleveland Center
Mon 06:37:00 PM 40.7108 -79.5422 126° Southeast 498 573 33,000  Level Cleveland Center
Mon 06:38:00 PM 40.6258 -79.3903 126° Southeast 481 554 33,000  Level Cleveland Center
Mon 06:39:00 PM 40.5350 -79.2856 139° Southeast 476 548 33,000  Level Cleveland Center
Mon 06:40:00 PM 40.4397 -79.1644 136° Southeast 476 548 33,000  Level Cleveland Center
Mon 06:41:00 PM 40.3775 -79.0158 119° Southeast 467 537 33,000  Level Cleveland Center
Mon 06:42:00 PM 40.3231 -78.8647 115° Southeast 462 532 33,000  Level Cleveland Center
Mon 06:43:00 PM 40.3100 -78.6961 96° East 442 509 33,000 -100 Level Cleveland Center
Mon 06:44:00 PM 40.3133 -78.5300 88° East 442 509 32,800 -1,934 Descending Cleveland Center
Mon 06:45:00 PM 40.3107 -78.3813 91° East  Level FlightAware Approximate
Mon 06:46:03 PM 40.3133 -78.1675 91° East 478 550 27,100  Level New York Center
Mon 06:47:03 PM 40.3111 -77.9983 91° East 478 550 25,000 -1,050 Descending New York Center
Mon 06:48:03 PM 40.3108 -77.8322 90° East 471 542 25,000 -900 Level New York Center
Mon 06:49:03 PM 40.3103 -77.6661 90° East 463 533 23,200 -1,900 Descending New York Center
Mon 06:50:03 PM 40.3089 -77.5081 91° East 453 521 21,200 -1,950 Descending New York Center
Mon 06:51:03 PM 40.3086 -77.3664 90° East 442 509 19,300 -1,600 Descending New York Center
Mon 06:52:03 PM 40.3050 -77.2025 92° East 418 481 18,000 -650 Descending New York Center
Mon 06:53:03 PM 40.3000 -77.0661 93° East 418 481 18,000 -100 Level New York Center
Mon 06:54:03 PM 40.2628 -76.8994 106° East 429 494 17,800 -850 Descending New York Center
Mon 06:55:03 PM 40.2283 -76.7578 108° East 424 488 16,300 -1,500 Descending New York Center
Mon 06:56:03 PM 40.1997 -76.6247 106° East 401 461 14,800 -1,400 Descending New York Center
Mon 06:57:03 PM 40.1733 -76.5219 109° East 353 406 13,500 -1,550 Descending New York Center
Mon 06:58:03 PM 40.1478 -76.4058 106° East 330 380 11,700 -1,250 Descending New York Center
Mon 06:59:03 PM 40.1181 -76.2839 108° East 330 380 11,000 -1,200 Descending New York Center
Mon 07:00:03 PM 40.1086 -76.1719 96° East 316 364 9,300 -1,500 Descending New York Center
Mon 07:01:03 PM 40.0897 -76.0861 106° East 295 339 8,000 -1,100 Descending New York Center
Mon 07:02:03 PM 40.0311 -76.0900 183° South 185 213 7,100 -2,150 Descending New York Center
Mon 07:03:03 PM 39.9661 -76.0497 155° Southeast 217 250 3,700 -2,050 Descending New York Center
Mon 07:04:03 PM 39.9292 -75.9928 130° Southeast 217 250 3,000 2,150 Descending New York Center
Mon 07:05:03 PM 39.8786 -75.9567 151° Southeast 217 250 8,000 2,500 Climbing New York Center
Mon 07:06:03 PM 39.8281 -75.9178 149° Southeast 217 250 8,000  Level New York Center
Mon 07:07:03 PM 39.7775 -75.8817 151° Southeast 217 250 8,000  Level New York Center
Mon 07:08:03 PM 39.7475 -75.8578 149° Southeast 217 250 8,000  Level New York Center
Mon 07:10:03 PM 39.7475 -75.8578 90° East 217 250 8,000  Level New York Center
Mon 07:12:03 PM 39.7475 -75.8578 90° East 217 250 8,000  Level New York Center
Mon 07:14:03 PM 39.7475 -75.8578 90° East 217 250 8,000  Level New York Center

Login

Don't have an account? Register now (free) for customized features, flight alerts, and more!